Terminal Aerodrome Forecast
Issued by NWS

Home | Current Version | Previous Version | Graphics & Text | Print | Product List | Glossary On
Versions: 1 2 3 4 5 6 7 8 9 10 11 12 13 14 15 16 17 18 19 20 21 22 23 24 25
000
FTUS43 KLOT 281120
TAFDPA
TAF
KDPA 281120Z 2812/2912 18013KT P6SM VCSH SCT025 BKN035
     FM281400 19013G21KT P6SM SCT040 BKN150
     FM282000 19015G23KT P6SM SCT040 BKN250
     FM290200 19012KT P6SM SCT040 BKN250 PROB30 2902/2905 4SM -TSRA
      BKN030CB
     FM290600 22009KT P6SM FEW035 SCT250=

USA.gov is the U.S. government's official web portal to all federal, state and local government web resources and services.